createdAt,value
2022-11-02T00:01:57.076Z,100.00
2022-11-02T00:04:43.656Z,100.00
2022-11-02T00:07:29.984Z,100.00
2022-11-02T00:10:16.635Z,100.00
2022-11-02T00:13:03.548Z,100.00
2022-11-02T00:15:50.115Z,100.00
2022-11-02T00:18:37.655Z,100.00
2022-11-02T00:21:25.550Z,100.00
2022-11-02T00:24:12.685Z,100.00
2022-11-02T00:26:59.411Z,100.00
2022-11-02T00:29:45.952Z,100.00
2022-11-02T00:32:32.252Z,100.00
2022-11-02T00:35:18.950Z,100.00
2022-11-02T00:38:05.927Z,100.00
2022-11-02T00:40:52.836Z,100.00
2022-11-02T00:43:39.056Z,100.00
2022-11-02T00:46:25.799Z,100.00
2022-11-02T00:49:13.045Z,100.00
2022-11-02T00:51:59.571Z,100.00
2022-11-02T00:54:48.089Z,100.00
2022-11-02T00:57:35.461Z,100.00
2022-11-02T01:00:22.433Z,100.00
2022-11-02T01:03:08.800Z,100.00
2022-11-02T01:05:55.371Z,100.00
2022-11-02T01:08:42.352Z,100.00
2022-11-02T01:11:28.833Z,100.00
2022-11-02T01:14:14.978Z,100.00
2022-11-02T01:17:01.422Z,100.00
2022-11-02T01:19:47.786Z,100.00
2022-11-02T01:22:34.082Z,100.00
2022-11-02T01:25:20.525Z,100.00
2022-11-02T01:28:07.226Z,100.00
2022-11-02T01:30:54.148Z,100.00
2022-11-02T01:33:46.891Z,100.00
2022-11-02T01:36:33.494Z,100.00
2022-11-02T01:39:20.129Z,100.00
2022-11-02T01:42:21.559Z,100.00
2022-11-02T01:45:11.568Z,100.00
2022-11-02T01:47:58.032Z,100.00
2022-11-02T01:50:44.713Z,100.00
2022-11-02T01:53:33.723Z,100.00
2022-11-02T01:59:20.999Z,100.00
2022-11-02T02:02:16.099Z,100.00
2022-11-02T02:05:08.798Z,100.00
2022-11-02T02:07:56.292Z,100.00
2022-11-02T02:10:43.175Z,100.00
2022-11-02T02:13:29.679Z,100.00
2022-11-02T02:16:21.796Z,100.00
2022-11-02T02:19:34.473Z,100.00
2022-11-02T02:22:51.163Z,100.00
2022-11-02T02:25:54.245Z,100.00
2022-11-02T02:28:51.617Z,100.00
2022-11-02T02:32:07.197Z,100.00
2022-11-02T02:35:04.111Z,100.00
2022-11-02T02:37:56.733Z,100.00
2022-11-02T02:40:58.037Z,100.00
2022-11-02T02:43:50.441Z,100.00
2022-11-02T02:46:46.543Z,100.00
2022-11-02T02:49:40.560Z,100.00
2022-11-02T02:52:28.928Z,100.00
2022-11-02T02:55:25.158Z,100.00
2022-11-02T02:58:20.065Z,100.00
2022-11-02T03:01:11.020Z,100.00
2022-11-02T03:03:57.662Z,100.00
2022-11-02T03:06:52.382Z,100.00
2022-11-02T03:09:48.938Z,100.00
2022-11-02T03:12:50.577Z,100.00
2022-11-02T03:15:54.801Z,100.00
2022-11-02T03:19:03.544Z,100.00
2022-11-02T03:22:17.441Z,100.00
2022-11-02T03:25:16.878Z,100.00
2022-11-02T03:28:17.512Z,100.00
2022-11-02T03:31:14.134Z,100.00
2022-11-02T03:34:13.450Z,100.00
2022-11-02T03:37:15.518Z,100.00
2022-11-02T03:40:17.144Z,100.00
2022-11-02T03:43:05.592Z,100.00
2022-11-02T03:45:56.078Z,100.00
2022-11-02T03:48:48.080Z,100.00
2022-11-02T03:51:39.766Z,100.00
2022-11-02T03:54:49.852Z,100.00
2022-11-02T03:57:48.824Z,100.00
2022-11-02T04:00:47.493Z,100.00
2022-11-02T04:03:38.094Z,100.00
2022-11-02T04:06:25.645Z,100.00
2022-11-02T04:09:12.593Z,100.00
2022-11-02T04:12:18.133Z,100.00
2022-11-02T04:15:05.501Z,100.00
2022-11-02T04:18:10.640Z,100.00
2022-11-02T04:20:57.386Z,100.00
2022-11-02T04:24:02.834Z,100.00
2022-11-02T04:26:49.457Z,100.00
2022-11-02T04:29:37.578Z,100.00
2022-11-02T04:32:42.926Z,100.00
2022-11-02T04:35:34.777Z,100.00
2022-11-02T04:38:40.229Z,100.00
2022-11-02T04:41:41.871Z,100.00
2022-11-02T04:44:33.964Z,100.00
2022-11-02T04:47:35.810Z,100.00
2022-11-02T04:50:22.358Z,100.00
2022-11-02T04:53:09.192Z,100.00
2022-11-02T04:55:57.949Z,100.00
2022-11-02T04:58:57.551Z,100.00
2022-11-02T05:01:44.358Z,100.00
2022-11-02T05:04:31.383Z,100.00
2022-11-02T05:07:18.139Z,100.00
2022-11-02T05:10:05.178Z,100.00
2022-11-02T05:12:58.328Z,100.00
2022-11-02T05:15:47.993Z,100.00
2022-11-02T05:18:34.560Z,100.00
2022-11-02T05:21:21.244Z,100.00
2022-11-02T05:24:09.019Z,100.00
2022-11-02T05:26:56.400Z,100.00
2022-11-02T05:29:45.431Z,100.00
2022-11-02T05:32:32.293Z,100.00
2022-11-02T05:35:20.873Z,100.00
2022-11-02T05:38:07.501Z,100.00
2022-11-02T05:40:55.885Z,100.00
2022-11-02T05:43:44.350Z,100.00
2022-11-02T05:46:33.561Z,100.00
2022-11-02T05:49:20.133Z,100.00
2022-11-02T05:52:06.694Z,100.00
2022-11-02T05:54:53.024Z,100.00
2022-11-02T05:57:39.752Z,100.00
2022-11-02T06:00:25.964Z,100.00
2022-11-02T06:03:12.188Z,100.00
2022-11-02T06:06:07.408Z,100.00
2022-11-02T06:08:54.658Z,100.00
2022-11-02T06:11:41.124Z,100.00
2022-11-02T06:14:27.339Z,100.00
2022-11-02T06:17:13.650Z,100.00
2022-11-02T06:19:59.880Z,100.00
2022-11-02T06:22:46.539Z,100.00
2022-11-02T06:25:33.022Z,100.00
2022-11-02T06:28:19.863Z,100.00
2022-11-02T06:31:06.910Z,100.00
2022-11-02T06:33:53.523Z,100.00
2022-11-02T06:36:39.751Z,100.00
2022-11-02T06:39:26.511Z,100.00
2022-11-02T06:42:13.041Z,100.00
2022-11-02T06:45:02.499Z,100.00
2022-11-02T06:47:49.159Z,100.00
2022-11-02T06:50:35.867Z,100.00
2022-11-02T06:53:22.189Z,100.00
2022-11-02T06:56:09.616Z,100.00
2022-11-02T06:58:56.044Z,100.00
2022-11-02T07:01:42.466Z,100.00
2022-11-02T07:04:28.972Z,100.00
2022-11-02T07:07:15.574Z,100.00
2022-11-02T07:10:01.738Z,100.00
2022-11-02T07:12:48.059Z,100.00
2022-11-02T07:15:34.288Z,100.00
2022-11-02T07:18:21.402Z,100.00
2022-11-02T07:21:10.405Z,100.00
2022-11-02T07:23:56.802Z,100.00
2022-11-02T07:26:43.181Z,100.00
2022-11-02T07:29:29.456Z,100.00
2022-11-02T07:32:15.699Z,100.00
2022-11-02T07:35:02.271Z,100.00
2022-11-02T07:38:00.345Z,100.00
2022-11-02T07:40:50.650Z,100.00
2022-11-02T07:43:39.941Z,100.00
2022-11-02T07:46:49.827Z,100.00
2022-11-02T07:49:36.334Z,100.00
2022-11-02T07:52:22.666Z,100.00
2022-11-02T07:55:09.248Z,100.00
2022-11-02T07:58:01.034Z,100.00
2022-11-02T08:00:47.310Z,100.00
2022-11-02T08:03:33.978Z,100.00
2022-11-02T08:06:20.360Z,100.00
2022-11-02T08:09:06.642Z,100.00
2022-11-02T08:11:53.077Z,100.00
2022-11-02T08:14:39.775Z,100.00
2022-11-02T08:17:26.144Z,100.00
2022-11-02T08:20:12.700Z,100.00
2022-11-02T08:22:59.390Z,100.00
2022-11-02T08:25:47.335Z,100.00
2022-11-02T08:28:36.640Z,100.00
2022-11-02T08:31:23.809Z,100.00
2022-11-02T08:34:12.039Z,100.00
2022-11-02T08:36:59.651Z,100.00
2022-11-02T08:39:46.326Z,100.00
2022-11-02T08:42:32.630Z,100.00
2022-11-02T08:45:19.097Z,100.00
2022-11-02T08:48:07.360Z,100.00
2022-11-02T08:50:55.739Z,100.00
2022-11-02T08:53:43.790Z,100.00
2022-11-02T08:56:33.644Z,100.00
2022-11-02T08:59:19.888Z,100.00
2022-11-02T09:02:06.754Z,100.00
2022-11-02T09:04:53.194Z,100.00
2022-11-02T09:07:39.974Z,100.00
2022-11-02T09:10:28.515Z,100.00
2022-11-02T09:13:18.358Z,100.00
2022-11-02T09:16:05.155Z,100.00
2022-11-02T09:18:51.682Z,100.00
2022-11-02T09:21:38.246Z,100.00
2022-11-02T09:24:24.629Z,100.00
2022-11-02T09:27:11.226Z,100.00
2022-11-02T09:29:57.576Z,100.00
2022-11-02T09:32:43.887Z,100.00
2022-11-02T09:35:33.533Z,100.00
2022-11-02T09:38:20.203Z,100.00
2022-11-02T09:41:39.255Z,100.00
2022-11-02T09:44:37.138Z,100.00
2022-11-02T09:48:11.221Z,100.00
2022-11-02T09:50:48.111Z,100.00
2022-11-02T09:53:52.637Z,100.00
2022-11-02T09:56:40.571Z,100.00
2022-11-02T09:59:27.677Z,100.00
2022-11-02T10:02:29.465Z,100.00
2022-11-02T10:05:48.119Z,100.00
2022-11-02T10:08:42.637Z,100.00
2022-11-02T10:11:52.390Z,100.00
2022-11-02T10:15:14.754Z,100.00
2022-11-02T10:18:03.882Z,100.00
2022-11-02T10:20:59.848Z,100.00
2022-11-02T10:23:52.254Z,100.00
2022-11-02T10:26:43.382Z,100.00
2022-11-02T10:29:48.461Z,100.00
2022-11-02T10:32:38.593Z,100.00
2022-11-02T10:35:45.775Z,100.00
2022-11-02T10:39:05.670Z,98.37
2022-11-02T10:42:06.233Z,96.36
2022-11-02T10:45:14.687Z,94.47
2022-11-02T10:48:32.305Z,94.94
2022-11-02T10:51:20.027Z,95.89
2022-11-02T10:54:13.758Z,94.57
2022-11-02T10:57:13.091Z,94.91
2022-11-02T11:00:26.749Z,97.07
2022-11-02T11:03:18.056Z,96.73
2022-11-02T11:06:05.044Z,94.54
2022-11-02T11:08:52.115Z,95.30
2022-11-02T11:11:39.040Z,95.15
2022-11-02T11:20:47.469Z,93.01
2022-11-02T11:23:33.938Z,91.31
2022-11-02T11:26:30.286Z,89.36
2022-11-02T11:29:22.809Z,90.34
2022-11-02T11:32:30.485Z,88.84
2022-11-02T11:35:20.343Z,87.36
2022-11-02T11:38:17.612Z,83.43
2022-11-02T11:41:04.726Z,82.02
2022-11-02T11:43:53.050Z,79.97
2022-11-02T11:46:52.513Z,78.14
2022-11-02T11:50:07.717Z,79.77
2022-11-02T11:53:16.502Z,85.15
2022-11-02T11:56:02.871Z,77.70
2022-11-02T11:58:52.284Z,80.61
2022-11-02T12:01:40.328Z,79.58
2022-11-02T12:04:37.453Z,76.56
2022-11-02T12:07:30.138Z,73.89
2022-11-02T12:10:19.656Z,73.84
2022-11-02T12:13:36.669Z,72.66
2022-11-02T12:17:01.977Z,73.61
2022-11-02T12:20:11.964Z,73.27
2022-11-02T12:23:01.654Z,73.49
2022-11-02T12:26:07.249Z,74.30
2022-11-02T12:29:27.854Z,71.74
2022-11-02T12:32:59.115Z,72.79
2022-11-02T12:36:05.218Z,73.18
2022-11-02T12:39:08.172Z,72.84
2022-11-02T12:42:24.907Z,70.54
2022-11-02T12:45:25.355Z,72.69
2022-11-02T12:48:21.591Z,71.95
2022-11-02T12:51:25.585Z,72.76
2022-11-02T12:54:18.227Z,73.09
2022-11-02T12:57:07.958Z,75.16
2022-11-02T13:00:00.888Z,74.60
2022-11-02T13:02:47.704Z,71.92
2022-11-02T13:05:45.962Z,72.35
2022-11-02T13:08:39.874Z,74.38
2022-11-02T13:11:34.240Z,74.79
2022-11-02T13:14:23.961Z,73.68
2022-11-02T13:17:25.314Z,71.15
2022-11-02T13:20:24.352Z,69.68
2022-11-02T13:23:33.736Z,70.39
2022-11-02T13:26:34.370Z,72.73
2022-11-02T13:29:30.599Z,72.46
2022-11-02T13:32:32.613Z,70.68
2022-11-02T13:35:33.205Z,70.49
2022-11-02T13:38:42.339Z,67.51
2022-11-02T13:41:48.309Z,67.95
2022-11-02T13:44:59.165Z,69.51
2022-11-02T13:48:07.879Z,68.54
2022-11-02T13:50:58.969Z,69.64
2022-11-02T13:53:54.207Z,70.08
2022-11-02T13:56:41.488Z,72.17
2022-11-02T13:59:32.939Z,72.92
2022-11-02T14:02:23.189Z,70.56
2022-11-02T14:05:25.265Z,72.29
2022-11-02T14:08:20.265Z,71.58
2022-11-02T14:11:23.929Z,71.67
2022-11-02T14:14:10.040Z,71.91
2022-11-02T14:16:58.651Z,72.18
2022-11-02T14:19:47.948Z,71.82
2022-11-02T14:22:34.460Z,73.24
2022-11-02T14:25:20.755Z,73.45
2022-11-02T14:28:22.503Z,73.44
2022-11-02T14:31:36.548Z,72.97
2022-11-02T14:35:00.500Z,73.61
2022-11-02T14:38:08.979Z,73.00
2022-11-02T14:41:22.704Z,73.84
2022-11-02T14:44:28.862Z,73.91
2022-11-02T14:47:17.790Z,75.14
2022-11-02T14:50:20.840Z,74.94
2022-11-02T14:53:16.187Z,76.43
2022-11-02T14:56:03.310Z,74.68
2022-11-02T14:58:54.332Z,76.16
2022-11-02T15:02:00.108Z,76.96
2022-11-02T15:04:54.221Z,75.81
2022-11-02T15:07:55.716Z,77.13
2022-11-02T15:10:45.059Z,77.63
2022-11-02T15:13:45.585Z,78.10
2022-11-02T15:16:40.076Z,82.10
2022-11-02T15:19:43.884Z,85.31
2022-11-02T15:22:38.191Z,89.05
2022-11-02T15:25:32.335Z,87.32
2022-11-02T15:28:27.680Z,83.38
2022-11-02T15:31:23.187Z,83.72
2022-11-02T15:34:20.648Z,85.73
2022-11-02T15:37:08.715Z,89.62
2022-11-02T15:39:58.745Z,95.33
2022-11-02T15:42:56.809Z,99.76
2022-11-02T15:46:00.327Z,97.59
2022-11-02T15:48:56.870Z,100.00
2022-11-02T15:51:49.682Z,100.00
2022-11-02T15:54:46.385Z,100.00
2022-11-02T15:57:50.188Z,100.00
2022-11-02T16:00:36.597Z,100.00
2022-11-02T16:03:22.715Z,100.00
2022-11-02T16:06:09.294Z,100.00
2022-11-02T16:09:01.194Z,100.00
2022-11-02T16:12:12.132Z,100.00
2022-11-02T16:15:05.719Z,100.00
2022-11-02T16:17:52.724Z,100.00
2022-11-02T16:20:40.126Z,100.00
2022-11-02T16:23:30.057Z,100.00
2022-11-02T16:26:34.841Z,100.00
2022-11-02T16:29:31.663Z,100.00
2022-11-02T16:32:18.114Z,100.00
2022-11-02T16:35:04.916Z,100.00
2022-11-02T16:37:51.250Z,100.00
2022-11-02T16:40:37.626Z,100.00
2022-11-02T16:43:26.045Z,100.00
2022-11-02T16:46:16.016Z,100.00
2022-11-02T16:49:13.487Z,100.00
2022-11-02T16:52:06.987Z,100.00
2022-11-02T16:54:53.166Z,100.00
2022-11-02T16:57:45.626Z,100.00
2022-11-02T17:00:32.296Z,100.00
2022-11-02T17:03:26.597Z,100.00
2022-11-02T17:06:13.031Z,100.00
2022-11-02T17:08:59.315Z,100.00
2022-11-02T17:11:45.826Z,100.00
2022-11-02T17:14:33.032Z,100.00
2022-11-02T17:17:22.398Z,100.00
2022-11-02T17:20:14.477Z,100.00
2022-11-02T17:23:07.181Z,100.00
2022-11-02T17:26:21.956Z,100.00
2022-11-02T17:29:26.718Z,100.00
2022-11-02T17:32:17.075Z,100.00
2022-11-02T17:35:04.871Z,100.00
2022-11-02T17:37:53.271Z,100.00
2022-11-02T17:40:39.845Z,100.00
2022-11-02T17:43:27.479Z,100.00
2022-11-02T17:46:14.086Z,100.00
2022-11-02T17:49:00.342Z,100.00
2022-11-02T17:51:47.242Z,100.00
2022-11-02T17:54:33.452Z,100.00
2022-11-02T17:57:20.812Z,100.00
2022-11-02T18:00:08.015Z,100.00
2022-11-02T18:02:58.871Z,100.00
2022-11-02T18:05:49.433Z,100.00
2022-11-02T18:08:57.024Z,100.00
2022-11-02T18:11:43.371Z,100.00
2022-11-02T18:14:29.897Z,100.00
2022-11-02T18:17:16.094Z,100.00
2022-11-02T18:20:02.500Z,100.00
2022-11-02T18:22:50.244Z,100.00
2022-11-02T18:25:36.796Z,100.00
2022-11-02T18:28:23.411Z,100.00
2022-11-02T18:31:09.685Z,100.00
2022-11-02T18:33:56.590Z,100.00
2022-11-02T18:36:43.222Z,100.00
2022-11-02T18:39:29.568Z,100.00
2022-11-02T18:42:16.138Z,100.00
2022-11-02T18:45:03.020Z,100.00
2022-11-02T18:47:49.432Z,100.00
2022-11-02T18:50:35.714Z,100.00
2022-11-02T18:53:22.050Z,100.00
2022-11-02T18:56:09.567Z,100.00
2022-11-02T18:58:56.912Z,100.00
2022-11-02T19:01:43.235Z,100.00
2022-11-02T19:04:31.080Z,100.00
2022-11-02T19:07:36.203Z,100.00
2022-11-02T19:10:22.499Z,100.00
2022-11-02T19:13:08.813Z,100.00
2022-11-02T19:15:55.504Z,100.00
2022-11-02T19:18:42.264Z,100.00
2022-11-02T19:21:28.668Z,100.00
2022-11-02T19:24:15.248Z,100.00
2022-11-02T19:27:01.535Z,100.00
2022-11-02T19:29:47.929Z,100.00
2022-11-02T19:32:34.445Z,100.00
2022-11-02T19:35:20.891Z,100.00
2022-11-02T19:38:07.144Z,100.00
2022-11-02T19:41:11.288Z,100.00
2022-11-02T19:43:57.826Z,100.00
2022-11-02T19:46:44.218Z,100.00
2022-11-02T19:49:30.523Z,100.00
2022-11-02T19:52:17.148Z,100.00
2022-11-02T19:55:03.602Z,100.00
2022-11-02T19:57:49.864Z,100.00
2022-11-02T20:00:36.238Z,100.00
2022-11-02T20:03:23.086Z,100.00
2022-11-02T20:06:12.834Z,100.00
2022-11-02T20:09:01.782Z,100.00
2022-11-02T20:11:48.478Z,100.00
2022-11-02T20:14:36.305Z,100.00
2022-11-02T20:17:32.096Z,100.00
2022-11-02T20:20:24.841Z,100.00
2022-11-02T20:23:10.893Z,100.00
2022-11-02T20:26:02.437Z,100.00
2022-11-02T20:28:49.458Z,100.00
2022-11-02T20:31:39.174Z,100.00
2022-11-02T20:34:25.688Z,100.00
2022-11-02T20:37:11.941Z,100.00
2022-11-02T20:39:58.480Z,100.00
2022-11-02T20:42:44.784Z,100.00
2022-11-02T20:45:30.994Z,100.00
2022-11-02T20:48:17.252Z,100.00
2022-11-02T20:51:04.329Z,100.00
2022-11-02T20:53:51.159Z,100.00
2022-11-02T20:56:37.543Z,100.00
2022-11-02T20:59:23.836Z,100.00
2022-11-02T21:02:11.607Z,100.00
2022-11-02T21:04:58.112Z,100.00
2022-11-02T21:07:44.320Z,100.00
2022-11-02T21:10:30.799Z,100.00
2022-11-02T21:13:35.791Z,100.00
2022-11-02T21:16:22.368Z,100.00
2022-11-02T21:19:08.767Z,100.00
2022-11-02T21:21:59.353Z,100.00
2022-11-02T21:24:46.266Z,100.00
2022-11-02T21:27:32.651Z,100.00
2022-11-02T21:30:19.306Z,100.00
2022-11-02T21:33:06.061Z,100.00
2022-11-02T21:35:54.922Z,100.00
2022-11-02T21:38:42.170Z,100.00
2022-11-02T21:41:29.483Z,100.00
2022-11-02T21:44:16.087Z,100.00
2022-11-02T21:47:02.204Z,100.00
2022-11-02T21:49:48.528Z,100.00
2022-11-02T21:52:37.043Z,100.00
2022-11-02T21:55:24.132Z,100.00
2022-11-02T21:58:10.907Z,100.00
2022-11-02T22:01:17.434Z,100.00
2022-11-02T22:04:05.397Z,100.00
2022-11-02T22:06:52.449Z,100.00
2022-11-02T22:09:38.765Z,100.00
2022-11-02T22:12:43.669Z,100.00
2022-11-02T22:15:31.353Z,100.00
2022-11-02T22:18:19.572Z,100.00
2022-11-02T22:21:06.197Z,100.00
2022-11-02T22:23:53.160Z,100.00
2022-11-02T22:26:40.247Z,100.00
2022-11-02T22:29:26.765Z,100.00
2022-11-02T22:32:14.477Z,100.00
2022-11-02T22:35:01.001Z,100.00
2022-11-02T22:38:06.269Z,100.00
2022-11-02T22:40:59.741Z,100.00
2022-11-02T22:43:46.755Z,100.00
2022-11-02T22:46:36.361Z,100.00
2022-11-02T22:49:22.538Z,100.00
2022-11-02T22:52:08.842Z,100.00
2022-11-02T22:54:55.006Z,100.00
2022-11-02T22:57:41.535Z,100.00
2022-11-02T23:00:27.810Z,100.00
2022-11-02T23:03:14.312Z,100.00
2022-11-02T23:06:01.949Z,100.00
2022-11-02T23:08:50.178Z,100.00
2022-11-02T23:11:37.548Z,100.00
2022-11-02T23:14:23.894Z,100.00
2022-11-02T23:17:10.268Z,100.00
2022-11-02T23:19:56.692Z,100.00
2022-11-02T23:22:42.902Z,100.00
2022-11-02T23:25:29.301Z,100.00
2022-11-02T23:28:34.321Z,100.00
2022-11-02T23:31:39.255Z,100.00
2022-11-02T23:34:25.470Z,100.00
2022-11-02T23:37:11.835Z,100.00
2022-11-02T23:39:58.160Z,100.00
2022-11-02T23:42:44.721Z,100.00
2022-11-02T23:45:31.281Z,100.00
2022-11-02T23:48:17.587Z,100.00
2022-11-02T23:51:22.673Z,100.00
2022-11-02T23:54:27.504Z,100.00
2022-11-02T23:57:13.726Z,100.00
2022-11-02T23:59:59.968Z,100.00
